createdAt,value
2019-03-15T00:00:46.266Z,76.75
2019-03-15T00:03:16.117Z,76.45
2019-03-15T00:05:45.861Z,77.92
2019-03-15T00:08:15.465Z,78.06
2019-03-15T00:10:45.071Z,78.84
2019-03-15T00:13:15.019Z,79.10
2019-03-15T00:15:44.558Z,79.49
2019-03-15T00:18:13.943Z,79.38
2019-03-15T00:20:43.937Z,79.55
2019-03-15T00:23:13.661Z,79.58
2019-03-15T00:25:43.647Z,79.58
2019-03-15T00:28:13.683Z,79.56
2019-03-15T00:30:44.032Z,79.87
2019-03-15T00:33:13.880Z,80.26
2019-03-15T00:35:43.445Z,80.24
2019-03-15T00:38:13.098Z,80.34
2019-03-15T00:40:45.066Z,80.62
2019-03-15T00:43:15.256Z,80.90
2019-03-15T00:45:44.926Z,81.03
2019-03-15T00:48:14.492Z,81.02
2019-03-15T00:50:44.426Z,81.58
2019-03-15T00:53:14.172Z,81.49
2019-03-15T00:55:43.662Z,81.71
2019-03-15T00:58:13.322Z,82.14
2019-03-15T01:00:42.860Z,82.24
2019-03-15T01:03:12.581Z,81.90
2019-03-15T01:05:42.303Z,81.84
2019-03-15T01:08:11.928Z,81.58
2019-03-15T01:10:44.638Z,81.86
2019-03-15T01:13:15.002Z,81.78
2019-03-15T01:15:44.559Z,81.51
2019-03-15T01:18:14.217Z,81.48
2019-03-15T01:20:43.749Z,81.12
2019-03-15T01:23:13.458Z,81.03
2019-03-15T01:25:43.452Z,80.87
2019-03-15T01:28:13.100Z,80.63
2019-03-15T01:30:45.842Z,80.29
2019-03-15T01:33:15.259Z,79.98
2019-03-15T01:35:45.040Z,79.97
2019-03-15T01:38:14.717Z,80.18
2019-03-15T01:40:44.830Z,80.24
2019-03-15T01:43:14.530Z,80.67
2019-03-15T01:45:46.535Z,80.87
2019-03-15T01:48:16.945Z,81.20
2019-03-15T01:50:46.624Z,81.16
2019-03-15T01:53:16.562Z,81.01
2019-03-15T01:55:46.234Z,81.07
2019-03-15T01:58:16.312Z,80.92
2019-03-15T02:00:45.851Z,80.90
2019-03-15T02:03:18.480Z,81.41
2019-03-15T02:05:48.286Z,81.42
2019-03-15T02:08:18.251Z,81.72
2019-03-15T02:10:47.902Z,82.08
2019-03-15T02:13:17.851Z,82.31
2019-03-15T02:15:48.156Z,82.57
2019-03-15T02:18:18.722Z,82.39
2019-03-15T02:20:48.324Z,82.76
2019-03-15T02:23:17.830Z,82.93
2019-03-15T02:25:47.508Z,83.07
2019-03-15T02:28:17.036Z,83.06
2019-03-15T02:30:46.548Z,83.11
2019-03-15T02:33:16.358Z,83.24
2019-03-15T02:35:47.101Z,83.02
2019-03-15T02:38:16.876Z,82.59
2019-03-15T02:40:46.712Z,82.93
2019-03-15T02:43:16.867Z,83.47
2019-03-15T02:45:46.421Z,83.61
2019-03-15T02:48:16.454Z,83.43
2019-03-15T02:50:46.217Z,83.51
2019-03-15T02:53:15.872Z,83.00
2019-03-15T02:55:45.677Z,83.16
2019-03-15T02:58:15.264Z,82.80
2019-03-15T03:00:44.955Z,82.52
2019-03-15T03:03:14.618Z,82.58
2019-03-15T03:05:44.513Z,82.54
2019-03-15T03:08:14.370Z,82.51
2019-03-15T03:10:44.121Z,82.66
2019-03-15T03:13:14.118Z,82.62
2019-03-15T03:15:43.653Z,82.24
2019-03-15T03:18:13.162Z,82.53
2019-03-15T03:20:43.110Z,82.61
2019-03-15T03:23:12.884Z,82.71
2019-03-15T03:25:44.385Z,82.37
2019-03-15T03:28:14.659Z,82.54
2019-03-15T03:30:46.685Z,82.43
2019-03-15T03:33:18.072Z,82.39
2019-03-15T03:35:47.953Z,81.95
2019-03-15T03:38:17.732Z,81.77
2019-03-15T03:40:47.489Z,81.57
2019-03-15T03:43:17.051Z,81.44
2019-03-15T03:45:46.643Z,81.21
2019-03-15T03:48:16.358Z,81.74
2019-03-15T03:50:48.052Z,81.05
2019-03-15T03:53:17.744Z,81.53
2019-03-15T03:55:47.292Z,81.45
2019-03-15T03:58:17.153Z,81.37
2019-03-15T04:00:46.908Z,81.53
2019-03-15T04:03:16.617Z,81.69
2019-03-15T04:05:46.595Z,81.86
2019-03-15T04:08:16.443Z,81.55
2019-03-15T04:10:46.161Z,81.61
2019-03-15T04:13:15.929Z,81.66
2019-03-15T04:15:45.711Z,81.70
2019-03-15T04:18:18.052Z,82.18
2019-03-15T04:20:47.861Z,81.83
2019-03-15T04:23:17.488Z,82.09
2019-03-15T04:25:47.131Z,82.18
2019-03-15T04:28:16.762Z,82.26
2019-03-15T04:30:46.357Z,82.37
2019-03-15T04:33:15.845Z,82.65
2019-03-15T04:35:45.589Z,82.58
2019-03-15T04:38:15.600Z,82.83
2019-03-15T04:40:45.078Z,82.75
2019-03-15T04:43:16.072Z,82.94
2019-03-15T04:45:45.564Z,82.70
2019-03-15T04:48:15.186Z,82.84
2019-03-15T04:50:45.405Z,82.16
2019-03-15T04:53:17.779Z,81.92
2019-03-15T04:55:47.344Z,82.15
2019-03-15T04:58:16.918Z,81.98
2019-03-15T05:00:46.743Z,82.02
2019-03-15T05:03:16.385Z,81.79
2019-03-15T05:05:46.480Z,81.74
2019-03-15T05:08:16.058Z,81.68
2019-03-15T05:10:45.647Z,81.55
2019-03-15T05:13:15.169Z,81.48
2019-03-15T05:15:44.690Z,81.37
2019-03-15T05:18:14.161Z,81.57
2019-03-15T05:20:45.214Z,81.75
2019-03-15T05:23:15.244Z,81.73
2019-03-15T05:25:45.000Z,82.03
2019-03-15T05:28:15.599Z,82.38
2019-03-15T05:30:45.183Z,83.04
2019-03-15T05:33:14.775Z,83.23
2019-03-15T05:35:44.571Z,83.74
2019-03-15T05:38:14.362Z,83.50
2019-03-15T05:40:43.876Z,83.80
2019-03-15T05:43:13.599Z,84.26
2019-03-15T05:45:43.159Z,83.93
2019-03-15T05:48:12.882Z,84.81
2019-03-15T05:50:42.998Z,85.24
2019-03-15T05:53:12.630Z,85.02
2019-03-15T05:55:42.538Z,85.14
2019-03-15T05:58:12.052Z,85.01
2019-03-15T06:00:41.771Z,86.72
2019-03-15T06:03:12.628Z,87.39
2019-03-15T06:05:42.742Z,87.46
2019-03-15T06:08:12.405Z,86.38
2019-03-15T06:10:42.185Z,85.89
2019-03-15T06:13:11.874Z,85.17
2019-03-15T06:15:41.701Z,84.36
2019-03-15T06:18:11.503Z,84.68
2019-03-15T06:20:41.609Z,84.16
2019-03-15T06:23:11.546Z,83.44
2019-03-15T06:25:41.308Z,83.56
2019-03-15T06:28:10.992Z,82.26
2019-03-15T06:30:41.046Z,83.00
2019-03-15T06:33:10.779Z,81.99
2019-03-15T06:35:41.253Z,82.82
2019-03-15T06:38:10.894Z,84.85
2019-03-15T06:40:41.027Z,85.08
2019-03-15T06:43:13.180Z,85.83
2019-03-15T06:45:42.283Z,86.44
2019-03-15T06:48:12.033Z,87.97
2019-03-15T06:50:42.213Z,87.74
2019-03-15T06:53:12.076Z,86.84
2019-03-15T06:55:51.891Z,87.74
2019-03-15T06:58:22.059Z,86.62
2019-03-15T07:00:54.467Z,88.01
2019-03-15T07:03:23.525Z,88.23
2019-03-15T07:05:59.439Z,87.96
2019-03-15T07:08:29.135Z,88.04
2019-03-15T07:10:58.864Z,88.58
2019-03-15T07:13:28.584Z,88.68
2019-03-15T07:15:58.436Z,88.80
2019-03-15T07:18:28.723Z,88.69
2019-03-15T07:20:58.641Z,88.87
2019-03-15T07:23:28.561Z,89.86
2019-03-15T07:25:58.667Z,90.11
2019-03-15T07:28:30.764Z,88.90
2019-03-15T07:31:01.381Z,89.43
2019-03-15T07:33:31.655Z,89.97
2019-03-15T07:36:03.686Z,90.99
2019-03-15T07:38:33.379Z,92.13
2019-03-15T07:41:07.182Z,92.89
2019-03-15T07:43:37.866Z,92.90
2019-03-15T07:46:13.990Z,92.55
2019-03-15T07:48:46.079Z,91.47
2019-03-15T07:51:16.279Z,92.21
2019-03-15T07:53:46.381Z,92.22
2019-03-15T07:56:16.537Z,92.65
2019-03-15T07:58:46.686Z,92.20
2019-03-15T08:01:17.396Z,92.71
2019-03-15T08:03:47.544Z,92.78
2019-03-15T08:06:18.362Z,94.19
2019-03-15T08:08:51.525Z,94.33
2019-03-15T08:11:27.152Z,92.99
2019-03-15T08:13:58.113Z,92.35
2019-03-15T08:16:39.694Z,92.68
2019-03-15T08:19:44.097Z,93.18
2019-03-15T08:22:14.258Z,93.88
2019-03-15T08:24:51.314Z,93.64
2019-03-15T08:27:17.760Z,94.06
2019-03-15T08:29:47.896Z,94.36
2019-03-15T08:32:18.142Z,95.14
2019-03-15T08:34:58.781Z,95.27
2019-03-15T08:37:38.575Z,95.61
2019-03-15T08:40:18.682Z,96.24
2019-03-15T08:42:57.119Z,96.26
2019-03-15T08:45:27.397Z,96.78
2019-03-15T08:48:10.495Z,96.47
2019-03-15T08:50:58.717Z,96.75
2019-03-15T08:53:46.457Z,96.99
2019-03-15T08:56:28.283Z,96.70
2019-03-15T08:59:26.457Z,96.95
2019-03-15T09:02:07.600Z,97.50
2019-03-15T09:04:40.159Z,97.67
2019-03-15T09:07:10.402Z,97.23
2019-03-15T09:09:40.420Z,96.58
2019-03-15T09:12:16.457Z,96.29
2019-03-15T09:14:46.154Z,96.40
2019-03-15T09:17:16.009Z,95.58
2019-03-15T09:19:45.929Z,95.63
2019-03-15T09:22:15.926Z,95.60
2019-03-15T09:24:45.498Z,94.90
2019-03-15T09:27:15.213Z,95.00
2019-03-15T09:29:46.563Z,94.54
2019-03-15T09:32:19.016Z,95.06
2019-03-15T09:34:48.879Z,95.61
2019-03-15T09:37:18.976Z,95.43
2019-03-15T09:39:48.958Z,95.34
2019-03-15T09:42:18.563Z,95.62
2019-03-15T09:44:48.904Z,95.86
2019-03-15T09:47:18.782Z,96.27
2019-03-15T09:49:48.565Z,96.27
2019-03-15T09:52:21.114Z,96.47
2019-03-15T09:54:50.562Z,94.98
2019-03-15T09:57:23.032Z,95.27
2019-03-15T09:59:53.164Z,94.57
2019-03-15T10:02:30.030Z,94.91
2019-03-15T10:04:54.569Z,94.94
2019-03-15T10:07:37.876Z,94.49
2019-03-15T10:10:12.973Z,93.15
2019-03-15T10:12:34.712Z,92.94
2019-03-15T10:15:07.820Z,92.35
2019-03-15T10:17:36.998Z,93.55
2019-03-15T10:20:12.478Z,94.37
2019-03-15T10:22:41.608Z,94.47
2019-03-15T10:25:12.030Z,94.23
2019-03-15T10:27:42.043Z,94.21
2019-03-15T10:30:15.578Z,93.89
2019-03-15T10:32:45.770Z,93.73
2019-03-15T10:35:15.956Z,93.63
2019-03-15T10:37:45.749Z,93.14
2019-03-15T10:40:18.991Z,92.94
2019-03-15T10:42:49.267Z,92.79
2019-03-15T10:45:19.464Z,93.01
2019-03-15T10:47:49.637Z,92.69
2019-03-15T10:50:20.050Z,92.87
2019-03-15T10:52:53.540Z,92.69
2019-03-15T10:55:24.344Z,92.59
2019-03-15T10:58:03.591Z,92.45
2019-03-15T11:00:33.618Z,92.32
2019-03-15T11:03:03.905Z,92.63
2019-03-15T11:05:34.226Z,92.43
2019-03-15T11:08:06.755Z,92.46
2019-03-15T11:10:36.940Z,92.34
2019-03-15T11:13:07.249Z,92.55
2019-03-15T11:15:37.261Z,92.49
2019-03-15T11:18:07.676Z,92.17
2019-03-15T11:20:37.716Z,91.99
2019-03-15T11:23:07.986Z,91.77
2019-03-15T11:25:38.551Z,91.67
2019-03-15T11:28:09.842Z,91.48
2019-03-15T11:30:39.510Z,91.32
2019-03-15T11:33:10.779Z,91.33
2019-03-15T11:35:40.537Z,91.22
2019-03-15T11:38:10.452Z,90.91
2019-03-15T11:40:42.309Z,90.87
2019-03-15T11:43:12.135Z,89.67
2019-03-15T11:45:42.183Z,89.48
2019-03-15T11:48:12.392Z,89.66
2019-03-15T11:50:42.127Z,89.33
2019-03-15T11:53:11.887Z,88.95
2019-03-15T11:55:42.191Z,87.54
2019-03-15T11:58:12.427Z,87.12
2019-03-15T12:00:42.312Z,86.09
2019-03-15T12:03:12.664Z,85.65
2019-03-15T12:05:42.864Z,85.08
2019-03-15T12:08:12.788Z,84.40
2019-03-15T12:10:43.049Z,83.77
2019-03-15T12:13:13.426Z,83.42
2019-03-15T12:15:43.265Z,83.25
2019-03-15T12:18:13.913Z,82.83
2019-03-15T12:20:43.833Z,82.41
2019-03-15T12:23:17.922Z,81.91
2019-03-15T12:25:49.461Z,82.15
2019-03-15T12:28:19.458Z,81.98
2019-03-15T12:30:49.632Z,81.95
2019-03-15T12:33:19.995Z,81.73
2019-03-15T12:35:50.010Z,81.26
2019-03-15T12:38:21.208Z,80.73
2019-03-15T12:40:51.503Z,81.02
2019-03-15T12:43:21.324Z,80.81
2019-03-15T12:45:52.619Z,80.80
2019-03-15T12:48:23.587Z,80.84
2019-03-15T12:50:53.971Z,80.78
2019-03-15T12:53:24.090Z,80.71
2019-03-15T12:55:56.094Z,80.82
2019-03-15T12:58:26.165Z,80.85
2019-03-15T13:00:57.517Z,80.67
2019-03-15T13:03:28.090Z,80.69
2019-03-15T13:05:58.009Z,80.67
2019-03-15T13:08:28.509Z,80.94
2019-03-15T13:10:59.140Z,81.11
2019-03-15T13:13:31.695Z,81.03
2019-03-15T13:16:03.923Z,81.09
2019-03-15T13:18:36.008Z,81.08
2019-03-15T13:21:09.874Z,80.79
2019-03-15T13:23:39.886Z,80.50
2019-03-15T13:26:10.189Z,79.86
2019-03-15T13:28:40.884Z,79.17
2019-03-15T13:31:16.278Z,79.56
2019-03-15T13:33:46.816Z,78.96
2019-03-15T13:36:17.651Z,78.81
2019-03-15T13:38:48.255Z,78.54
2019-03-15T13:41:19.781Z,78.64
2019-03-15T13:43:52.008Z,78.78
2019-03-15T13:46:22.003Z,78.79
2019-03-15T13:48:52.518Z,78.96
2019-03-15T13:51:23.782Z,78.10
2019-03-15T13:53:54.261Z,78.24
2019-03-15T13:56:25.972Z,77.83
2019-03-15T13:58:58.859Z,77.37
2019-03-15T14:01:29.426Z,77.50
2019-03-15T14:04:04.744Z,76.70
2019-03-15T14:06:38.263Z,77.01
2019-03-15T14:09:13.478Z,76.84
2019-03-15T14:11:44.100Z,76.65
2019-03-15T14:14:14.959Z,76.48
2019-03-15T14:16:46.534Z,75.96
2019-03-15T14:19:18.825Z,76.19
2019-03-15T14:21:49.523Z,76.04
2019-03-15T14:24:23.076Z,75.96
2019-03-15T14:26:53.878Z,76.00
2019-03-15T14:29:24.446Z,75.48
2019-03-15T14:31:55.531Z,75.27
2019-03-15T14:34:25.822Z,75.86
2019-03-15T14:36:59.017Z,76.08
2019-03-15T14:39:29.727Z,76.14
2019-03-15T14:42:03.814Z,75.80
2019-03-15T14:44:35.376Z,75.42
2019-03-15T14:47:06.752Z,75.14
2019-03-15T14:49:38.315Z,75.32
2019-03-15T14:52:12.257Z,75.62
2019-03-15T14:54:44.084Z,75.82
2019-03-15T14:57:15.262Z,75.46
2019-03-15T14:59:46.168Z,75.11
2019-03-15T15:02:17.086Z,74.66
2019-03-15T15:04:48.190Z,75.07
2019-03-15T15:07:18.974Z,74.55
2019-03-15T15:09:49.723Z,74.99
2019-03-15T15:12:20.646Z,75.13
2019-03-15T15:14:51.557Z,75.01
2019-03-15T15:17:21.952Z,75.21
2019-03-15T15:19:52.866Z,75.14
2019-03-15T15:22:23.425Z,74.79
2019-03-15T15:24:53.920Z,75.07
2019-03-15T15:27:25.584Z,74.81
2019-03-15T15:29:56.188Z,74.97
2019-03-15T15:32:26.766Z,74.80
2019-03-15T15:34:57.198Z,74.90
2019-03-15T15:37:27.335Z,75.12
2019-03-15T15:40:00.172Z,75.42
2019-03-15T15:42:30.054Z,75.53
2019-03-15T15:45:05.313Z,75.35
2019-03-15T15:47:35.730Z,75.57
2019-03-15T15:50:09.983Z,75.70
2019-03-15T15:52:40.284Z,76.15
2019-03-15T15:55:10.915Z,75.87
2019-03-15T15:57:41.657Z,75.94
2019-03-15T16:00:15.152Z,76.13
2019-03-15T16:02:45.562Z,75.53
2019-03-15T16:05:17.589Z,76.18
2019-03-15T16:07:48.155Z,76.11
2019-03-15T16:10:18.742Z,76.28
2019-03-15T16:12:49.249Z,76.71
2019-03-15T16:15:22.498Z,76.67
2019-03-15T16:17:52.916Z,76.47
2019-03-15T16:20:23.322Z,76.38
2019-03-15T16:22:53.729Z,76.29
2019-03-15T16:25:24.415Z,76.62
2019-03-15T16:27:54.736Z,76.75
2019-03-15T16:30:25.693Z,76.40
2019-03-15T16:32:56.046Z,76.02
2019-03-15T16:35:26.803Z,75.63
2019-03-15T16:37:57.667Z,75.93
2019-03-15T16:40:28.073Z,76.10
2019-03-15T16:42:58.261Z,76.12
2019-03-15T16:45:29.835Z,75.78
2019-03-15T16:48:00.426Z,75.70
2019-03-15T16:50:30.894Z,75.69
2019-03-15T16:53:06.115Z,75.81
2019-03-15T16:55:39.351Z,75.91
2019-03-15T16:58:10.054Z,75.96
2019-03-15T17:00:50.657Z,75.60
2019-03-15T17:03:22.020Z,75.94
2019-03-15T17:05:52.407Z,75.93
2019-03-15T17:08:23.068Z,76.22
2019-03-15T17:10:55.942Z,76.19
2019-03-15T17:13:26.292Z,76.18
2019-03-15T17:15:57.433Z,77.24
2019-03-15T17:18:27.776Z,77.18
2019-03-15T17:20:58.275Z,77.78
2019-03-15T17:23:29.422Z,79.24
2019-03-15T17:26:00.315Z,79.34
2019-03-15T17:28:30.574Z,80.37
2019-03-15T17:31:09.882Z,80.79
2019-03-15T17:33:34.966Z,81.55
2019-03-15T17:36:07.970Z,82.35
2019-03-15T17:38:39.370Z,82.91
2019-03-15T17:41:10.027Z,83.04
2019-03-15T17:43:40.672Z,83.54
2019-03-15T17:46:13.081Z,84.30
2019-03-15T17:48:43.904Z,84.75
2019-03-15T17:51:15.586Z,85.11
2019-03-15T17:53:47.217Z,85.99
2019-03-15T17:56:17.794Z,86.04
2019-03-15T17:58:49.514Z,86.97
2019-03-15T18:01:20.228Z,86.41
2019-03-15T18:03:50.859Z,86.11
2019-03-15T18:06:21.522Z,87.55
2019-03-15T18:08:51.667Z,88.02
2019-03-15T18:11:22.002Z,88.80
2019-03-15T18:13:54.457Z,88.95
2019-03-15T18:16:25.136Z,89.24
2019-03-15T18:18:55.674Z,88.75
2019-03-15T18:21:27.883Z,89.00
2019-03-15T18:23:58.456Z,89.16
2019-03-15T18:26:29.255Z,89.62
2019-03-15T18:28:59.758Z,90.61
2019-03-15T18:31:30.121Z,90.42
2019-03-15T18:34:00.891Z,90.08
2019-03-15T18:36:31.345Z,90.02
2019-03-15T18:39:02.849Z,90.82
2019-03-15T18:41:33.323Z,91.48
2019-03-15T18:44:04.811Z,91.28
2019-03-15T18:46:36.696Z,91.46
2019-03-15T18:49:07.383Z,91.97
2019-03-15T18:51:37.824Z,91.89
2019-03-15T18:54:17.404Z,91.58
2019-03-15T18:56:42.829Z,92.01
2019-03-15T18:59:13.453Z,91.57
2019-03-15T19:01:44.197Z,92.32
2019-03-15T19:04:16.106Z,92.49
2019-03-15T19:06:46.692Z,92.44
2019-03-15T19:09:17.066Z,92.40
2019-03-15T19:11:48.042Z,92.43
2019-03-15T19:14:19.055Z,92.47
2019-03-15T19:16:49.625Z,92.36
2019-03-15T19:19:20.179Z,92.20
2019-03-15T19:21:50.921Z,91.85
2019-03-15T19:24:21.088Z,91.90
2019-03-15T19:26:51.563Z,91.31
2019-03-15T19:29:22.287Z,90.83
2019-03-15T19:31:56.942Z,91.35
2019-03-15T19:34:28.644Z,90.89
2019-03-15T19:37:04.471Z,91.09
2019-03-15T19:39:36.162Z,90.58
2019-03-15T19:42:12.742Z,89.23
2019-03-15T19:44:43.680Z,88.51
2019-03-15T19:47:14.844Z,87.66
2019-03-15T19:49:45.491Z,87.30
2019-03-15T19:52:15.758Z,87.20
2019-03-15T19:54:59.479Z,86.97
2019-03-15T19:57:18.482Z,86.73
2019-03-15T19:59:48.859Z,86.74
2019-03-15T20:02:19.881Z,86.63
2019-03-15T20:04:50.355Z,86.42
2019-03-15T20:07:21.236Z,86.24
2019-03-15T20:09:52.359Z,85.83
2019-03-15T20:12:22.780Z,85.88
2019-03-15T20:14:53.025Z,85.75
2019-03-15T20:17:23.540Z,85.79
2019-03-15T20:19:54.159Z,85.79
2019-03-15T20:22:25.103Z,85.14
2019-03-15T20:24:55.484Z,84.90
2019-03-15T20:27:28.208Z,84.69
2019-03-15T20:29:58.913Z,84.20
2019-03-15T20:32:34.918Z,84.32
2019-03-15T20:35:08.010Z,84.25
2019-03-15T20:37:52.648Z,84.21
2019-03-15T20:40:23.628Z,83.78
2019-03-15T20:42:55.628Z,83.89
2019-03-15T20:45:39.425Z,83.74
2019-03-15T20:48:17.611Z,83.75
2019-03-15T20:50:49.474Z,83.53
2019-03-15T20:53:23.561Z,83.39
2019-03-15T20:55:55.015Z,83.42
2019-03-15T20:58:30.050Z,83.07
2019-03-15T21:01:00.925Z,82.86
2019-03-15T21:03:36.034Z,82.54
2019-03-15T21:06:08.545Z,82.79
2019-03-15T21:08:39.117Z,82.63
2019-03-15T21:11:09.989Z,82.64
2019-03-15T21:13:40.564Z,82.04
2019-03-15T21:16:18.528Z,82.24
2019-03-15T21:19:05.209Z,82.32
2019-03-15T21:21:48.369Z,82.12
2019-03-15T21:24:31.652Z,81.82
2019-03-15T21:27:14.342Z,81.34
2019-03-15T21:30:12.448Z,81.08
2019-03-15T21:32:38.920Z,80.92
2019-03-15T21:35:32.641Z,80.36
2019-03-15T21:38:09.985Z,80.11
2019-03-15T21:40:50.806Z,80.07
2019-03-15T21:43:34.726Z,79.66
2019-03-15T21:46:19.953Z,79.62
2019-03-15T21:48:58.250Z,79.75
2019-03-15T21:51:42.067Z,79.98
2019-03-15T21:54:16.981Z,79.76
2019-03-15T21:56:57.345Z,79.75
2019-03-15T21:59:52.517Z,79.78
2019-03-15T22:02:26.109Z,79.54
2019-03-15T22:04:59.139Z,79.51
2019-03-15T22:07:30.632Z,79.17
2019-03-15T22:10:01.044Z,78.87
2019-03-15T22:12:30.792Z,79.05
2019-03-15T22:15:00.442Z,79.17
2019-03-15T22:17:30.573Z,79.08
2019-03-15T22:20:05.037Z,78.75
2019-03-15T22:22:35.184Z,78.70
2019-03-15T22:25:07.699Z,78.37
2019-03-15T22:27:37.344Z,78.35
2019-03-15T22:30:11.283Z,78.12
2019-03-15T22:32:41.786Z,78.18
2019-03-15T22:35:11.378Z,78.30
2019-03-15T22:37:41.524Z,77.98
2019-03-15T22:40:11.169Z,78.00
2019-03-15T22:42:40.892Z,77.63
2019-03-15T22:45:11.397Z,77.22
2019-03-15T22:47:41.113Z,77.31
2019-03-15T22:50:11.564Z,77.29
2019-03-15T22:52:41.431Z,77.15
2019-03-15T22:55:15.312Z,77.37
2019-03-15T22:57:58.957Z,77.35
2019-03-15T23:00:28.809Z,77.53
2019-03-15T23:02:59.959Z,76.66
2019-03-15T23:05:29.678Z,76.79
2019-03-15T23:08:00.153Z,76.65
2019-03-15T23:10:29.607Z,76.62
2019-03-15T23:13:00.054Z,76.57
2019-03-15T23:15:29.711Z,76.76
2019-03-15T23:18:00.193Z,76.45
2019-03-15T23:20:29.746Z,76.80
2019-03-15T23:22:59.245Z,76.32
2019-03-15T23:25:28.878Z,76.42
2019-03-15T23:27:58.518Z,76.30
2019-03-15T23:30:28.263Z,76.54
2019-03-15T23:32:59.735Z,75.94
2019-03-15T23:35:30.702Z,76.00
2019-03-15T23:38:01.133Z,76.35
2019-03-15T23:40:32.961Z,76.38
2019-03-15T23:43:05.548Z,76.27
2019-03-15T23:45:39.274Z,76.24
2019-03-15T23:48:09.604Z,76.26
2019-03-15T23:50:42.162Z,76.03
2019-03-15T23:53:14.656Z,75.66
2019-03-15T23:55:48.534Z,75.76
2019-03-15T23:58:21.851Z,75.73
